createdAt,value
2019-01-06T00:02:23.851Z,4.60
2019-01-06T00:04:57.300Z,4.60
2019-01-06T00:07:36.183Z,4.60
2019-01-06T00:10:23.950Z,4.80
2019-01-06T00:12:54.054Z,4.60
2019-01-06T00:15:24.144Z,4.70
2019-01-06T00:17:56.968Z,4.60
2019-01-06T00:20:43.296Z,4.60
2019-01-06T00:23:13.396Z,4.60
2019-01-06T00:25:43.477Z,4.60
2019-01-06T00:28:16.249Z,4.60
2019-01-06T00:30:52.544Z,4.70
2019-01-06T00:33:25.419Z,4.60
2019-01-06T00:36:11.796Z,4.60
2019-01-06T00:38:57.090Z,4.70
2019-01-06T00:41:29.926Z,4.70
2019-01-06T00:44:09.208Z,4.70
2019-01-06T00:46:41.921Z,4.70
2019-01-06T00:49:28.141Z,4.70
2019-01-06T00:52:04.043Z,4.70
2019-01-06T00:54:34.133Z,4.70
2019-01-06T00:57:20.583Z,4.70
2019-01-06T00:59:51.080Z,4.70
2019-01-06T01:02:26.897Z,4.70
2019-01-06T01:04:59.680Z,4.70
2019-01-06T01:07:45.871Z,4.70
2019-01-06T01:10:31.180Z,4.70
2019-01-06T01:13:07.159Z,4.80
2019-01-06T01:15:55.898Z,4.70
2019-01-06T01:18:34.948Z,4.70
2019-01-06T01:21:05.093Z,4.80
2019-01-06T01:23:44.136Z,4.70
2019-01-06T01:26:30.496Z,4.70
2019-01-06T01:29:16.786Z,4.70
2019-01-06T01:32:03.552Z,4.70
2019-01-06T01:34:45.593Z,4.70
2019-01-06T01:37:18.340Z,4.70
2019-01-06T01:39:48.457Z,4.70
2019-01-06T01:42:18.547Z,4.80
2019-01-06T01:45:07.178Z,4.70
2019-01-06T01:47:53.796Z,4.70
2019-01-06T01:50:23.916Z,4.70
2019-01-06T01:52:54.005Z,4.70
2019-01-06T01:55:30.108Z,4.70
2019-01-06T01:58:09.296Z,4.60
2019-01-06T02:00:42.117Z,4.70
2019-01-06T02:03:28.665Z,4.60
2019-01-06T02:06:15.281Z,4.60
2019-01-06T02:08:45.659Z,4.60
2019-01-06T02:11:18.864Z,4.50
2019-01-06T02:13:49.041Z,4.50
2019-01-06T02:16:25.217Z,4.50
2019-01-06T02:19:01.338Z,4.50
2019-01-06T02:21:43.215Z,4.50
2019-01-06T02:24:22.595Z,4.50
2019-01-06T02:26:52.974Z,4.50
2019-01-06T02:29:35.345Z,4.50
2019-01-06T02:32:05.521Z,4.40
2019-01-06T02:34:52.198Z,4.40
2019-01-06T02:37:22.605Z,4.40
2019-01-06T02:40:09.295Z,4.40
2019-01-06T02:42:48.343Z,4.40
2019-01-06T02:45:24.437Z,4.40
2019-01-06T02:48:11.071Z,4.40
2019-01-06T02:50:41.430Z,4.40
2019-01-06T02:53:14.711Z,4.40
2019-01-06T02:56:00.107Z,4.40
2019-01-06T02:58:35.965Z,4.40
2019-01-06T03:01:08.779Z,4.40
2019-01-06T03:03:57.056Z,4.40
2019-01-06T03:06:43.903Z,4.30
2019-01-06T03:09:16.762Z,4.40
2019-01-06T03:12:04.638Z,4.40
2019-01-06T03:14:34.808Z,4.30
2019-01-06T03:17:04.935Z,4.30
2019-01-06T03:19:51.669Z,4.30
2019-01-06T03:22:38.434Z,4.30
2019-01-06T03:25:25.169Z,4.30
2019-01-06T03:27:55.273Z,4.30
2019-01-06T03:30:25.382Z,4.30
2019-01-06T03:33:12.006Z,4.30
2019-01-06T03:35:58.596Z,4.30
2019-01-06T03:38:28.975Z,4.30
2019-01-06T03:41:02.004Z,4.20
2019-01-06T03:43:44.372Z,4.20
2019-01-06T03:46:14.528Z,4.20
2019-01-06T03:48:59.932Z,4.20
2019-01-06T03:51:48.278Z,4.30
2019-01-06T03:54:24.116Z,4.30
2019-01-06T03:57:10.936Z,4.30
2019-01-06T03:59:53.136Z,4.20
2019-01-06T04:02:41.614Z,4.20
2019-01-06T04:05:11.695Z,4.20
2019-01-06T04:07:48.034Z,4.20
2019-01-06T04:10:20.978Z,4.20
2019-01-06T04:13:07.804Z,4.20
2019-01-06T04:15:41.065Z,4.20
2019-01-06T04:18:11.258Z,4.20
2019-01-06T04:20:41.357Z,4.20
2019-01-06T04:23:27.889Z,4.20
2019-01-06T04:25:57.972Z,4.20
2019-01-06T04:28:36.980Z,4.20
2019-01-06T04:31:10.176Z,4.20
2019-01-06T04:33:43.161Z,4.20
2019-01-06T04:36:19.070Z,4.20
2019-01-06T04:39:01.112Z,4.20
2019-01-06T04:41:40.375Z,4.20
2019-01-06T04:44:22.297Z,4.20
2019-01-06T04:46:52.688Z,4.20
2019-01-06T04:49:25.772Z,4.20
2019-01-06T04:51:59.192Z,4.20
2019-01-06T04:54:41.525Z,4.30
2019-01-06T04:57:26.840Z,4.20
2019-01-06T05:00:02.732Z,4.20
2019-01-06T05:02:38.468Z,4.20
2019-01-06T05:05:25.298Z,4.30
2019-01-06T05:07:55.440Z,4.20
2019-01-06T05:10:42.406Z,4.30
2019-01-06T05:13:18.521Z,4.30
2019-01-06T05:15:51.297Z,4.20
2019-01-06T05:18:36.617Z,4.20
2019-01-06T05:21:15.412Z,4.20
2019-01-06T05:24:03.807Z,4.30
2019-01-06T05:26:52.507Z,4.30
2019-01-06T05:29:34.621Z,4.20
2019-01-06T05:32:13.682Z,4.20
2019-01-06T05:34:53.910Z,4.20
2019-01-06T05:37:39.109Z,4.20
2019-01-06T05:40:15.004Z,4.20
2019-01-06T05:42:45.116Z,4.20
2019-01-06T05:45:15.183Z,4.20
2019-01-06T05:48:00.597Z,4.20
2019-01-06T05:50:47.533Z,4.20
2019-01-06T05:53:20.306Z,4.20
2019-01-06T05:56:02.596Z,4.10
2019-01-06T05:58:42.112Z,4.10
2019-01-06T06:01:12.689Z,4.10
2019-01-06T06:03:42.861Z,4.10
2019-01-06T06:06:18.399Z,4.10
2019-01-06T06:08:48.584Z,4.10
2019-01-06T06:11:24.657Z,4.20
2019-01-06T06:14:03.583Z,4.20
2019-01-06T06:16:42.520Z,4.10
2019-01-06T06:19:25.425Z,4.10
2019-01-06T06:21:55.763Z,4.10
2019-01-06T06:24:28.873Z,4.10
2019-01-06T06:27:01.893Z,4.10
2019-01-06T06:29:38.031Z,4.10
2019-01-06T06:32:10.856Z,4.10
2019-01-06T06:34:50.194Z,4.00
2019-01-06T06:37:36.470Z,4.00
2019-01-06T06:40:23.828Z,4.00
2019-01-06T06:42:56.664Z,4.00
2019-01-06T06:45:30.024Z,4.00
2019-01-06T06:48:09.332Z,4.00
2019-01-06T06:50:42.546Z,4.00
2019-01-06T06:53:12.709Z,4.00
2019-01-06T06:55:48.414Z,4.00
2019-01-06T06:58:24.059Z,4.00
2019-01-06T07:01:16.603Z,3.90
2019-01-06T07:03:48.499Z,3.90
2019-01-06T07:06:18.604Z,4.00
2019-01-06T07:08:54.501Z,4.00
2019-01-06T07:11:30.041Z,4.00
2019-01-06T07:14:03.172Z,4.00
2019-01-06T07:17:26.320Z,3.90
2019-01-06T07:20:08.633Z,3.90
2019-01-06T07:22:53.841Z,3.90
2019-01-06T07:25:27.138Z,3.90
2019-01-06T07:28:12.697Z,3.90
2019-01-06T07:30:45.644Z,3.90
2019-01-06T07:33:27.992Z,3.90
2019-01-06T07:36:13.418Z,3.90
2019-01-06T07:38:59.796Z,3.90
2019-01-06T07:41:38.969Z,3.90
2019-01-06T07:44:11.557Z,3.90
2019-01-06T07:46:41.644Z,3.90
2019-01-06T07:49:11.755Z,4.00
2019-01-06T07:51:42.194Z,4.00
2019-01-06T07:54:28.733Z,3.90
2019-01-06T07:57:15.399Z,4.00
2019-01-06T07:59:57.371Z,3.90
2019-01-06T08:02:46.707Z,3.90
2019-01-06T08:05:19.695Z,3.90
2019-01-06T08:07:49.784Z,4.00
2019-01-06T08:10:29.180Z,4.00
2019-01-06T08:13:05.071Z,4.00
2019-01-06T08:15:35.197Z,4.00
2019-01-06T08:18:21.603Z,4.00
2019-01-06T08:20:51.707Z,4.10
2019-01-06T08:23:24.643Z,4.10
2019-01-06T08:25:57.229Z,4.10
2019-01-06T08:28:27.312Z,4.00
2019-01-06T08:30:57.413Z,4.00
2019-01-06T08:33:45.546Z,4.10
2019-01-06T08:36:31.776Z,4.10
2019-01-06T08:39:17.124Z,4.10
2019-01-06T08:41:53.273Z,4.20
2019-01-06T08:44:39.345Z,4.20
2019-01-06T08:47:12.424Z,4.20
2019-01-06T08:49:58.725Z,4.30
2019-01-06T08:52:46.837Z,4.30
2019-01-06T08:55:16.965Z,4.30
2019-01-06T08:58:01.893Z,4.30
2019-01-06T09:00:41.263Z,4.30
2019-01-06T09:03:14.237Z,4.30
2019-01-06T09:06:02.205Z,4.30
2019-01-06T09:08:34.901Z,4.30
2019-01-06T09:11:10.725Z,4.40
2019-01-06T09:13:51.356Z,4.40
2019-01-06T09:16:24.271Z,4.40
2019-01-06T09:19:09.215Z,4.40
2019-01-06T09:21:39.303Z,4.40
2019-01-06T09:24:25.432Z,4.40
2019-01-06T09:26:55.523Z,4.40
2019-01-06T09:29:41.897Z,4.40
2019-01-06T09:32:11.979Z,4.50
2019-01-06T09:34:58.825Z,4.60
2019-01-06T09:37:41.316Z,4.50
2019-01-06T09:40:11.852Z,4.60
2019-01-06T09:42:47.611Z,4.50
2019-01-06T09:45:23.482Z,4.50
2019-01-06T09:48:10.092Z,4.60
2019-01-06T09:50:46.216Z,4.70
2019-01-06T09:53:16.309Z,4.70
2019-01-06T09:56:02.704Z,4.60
2019-01-06T09:58:32.795Z,4.60
2019-01-06T10:01:05.710Z,4.50
2019-01-06T10:03:52.363Z,4.50
2019-01-06T10:06:34.410Z,4.50
2019-01-06T10:09:20.600Z,4.50
2019-01-06T10:12:02.761Z,4.50
2019-01-06T10:14:41.791Z,4.50
2019-01-06T10:17:17.701Z,4.60
2019-01-06T10:19:47.781Z,4.70
2019-01-06T10:22:23.666Z,4.70
2019-01-06T10:25:03.322Z,4.70
2019-01-06T10:27:33.433Z,4.70
2019-01-06T10:30:09.279Z,4.80
2019-01-06T10:32:48.500Z,4.70
2019-01-06T10:35:18.837Z,4.80
2019-01-06T10:37:49.015Z,4.80
2019-01-06T10:40:25.233Z,4.90
2019-01-06T10:43:04.267Z,5.00
2019-01-06T10:45:50.440Z,5.10
2019-01-06T10:48:20.537Z,5.10
2019-01-06T10:50:56.616Z,5.10
2019-01-06T10:53:43.284Z,5.20
2019-01-06T10:56:16.382Z,5.30
2019-01-06T10:59:04.897Z,5.30
2019-01-06T11:01:51.232Z,5.30
2019-01-06T11:04:24.364Z,5.30
2019-01-06T11:06:57.108Z,5.20
2019-01-06T11:09:39.660Z,5.10
2019-01-06T11:12:26.307Z,5.20
2019-01-06T11:14:59.501Z,5.20
2019-01-06T11:17:47.463Z,5.30
2019-01-06T11:20:23.240Z,5.20
2019-01-06T11:22:53.315Z,5.20
2019-01-06T11:25:29.452Z,5.20
2019-01-06T11:28:15.836Z,5.10
2019-01-06T11:30:51.882Z,5.10
2019-01-06T11:33:38.314Z,5.20
2019-01-06T11:36:11.359Z,5.20
2019-01-06T11:38:53.475Z,5.20
2019-01-06T11:41:29.292Z,5.20
2019-01-06T11:44:08.435Z,5.30
2019-01-06T11:46:50.881Z,5.30
2019-01-06T11:49:26.669Z,5.30
2019-01-06T11:52:13.211Z,5.20
2019-01-06T11:54:43.305Z,5.10
2019-01-06T11:57:28.605Z,5.00
2019-01-06T11:59:58.747Z,5.10
2019-01-06T12:02:39.020Z,5.10
2019-01-06T12:05:24.740Z,5.10
2019-01-06T12:07:54.840Z,5.00
2019-01-06T12:10:41.253Z,5.00
2019-01-06T12:13:20.293Z,5.10
2019-01-06T12:15:56.177Z,5.10
2019-01-06T12:18:35.700Z,5.10
2019-01-06T12:21:08.719Z,5.20
2019-01-06T12:23:56.888Z,5.20
2019-01-06T12:26:26.994Z,5.20
2019-01-06T12:29:08.768Z,5.30
2019-01-06T12:31:38.875Z,5.30
2019-01-06T12:34:08.965Z,5.30
2019-01-06T12:36:39.127Z,5.30
2019-01-06T12:39:09.204Z,5.30
2019-01-06T12:41:51.546Z,5.30
2019-01-06T12:44:44.648Z,5.30
2019-01-06T12:47:26.593Z,5.20
2019-01-06T12:49:56.682Z,5.20
2019-01-06T12:52:41.923Z,5.10
2019-01-06T12:55:21.224Z,5.20
2019-01-06T12:57:54.458Z,5.20
2019-01-06T13:00:42.479Z,5.20
2019-01-06T13:03:29.095Z,5.30
2019-01-06T13:06:08.003Z,5.40
2019-01-06T13:08:38.105Z,5.30
2019-01-06T13:11:26.588Z,5.30
2019-01-06T13:14:05.699Z,5.30
2019-01-06T13:16:35.853Z,5.30
2019-01-06T13:19:14.954Z,5.30
2019-01-06T13:21:54.108Z,5.40
2019-01-06T13:24:39.496Z,5.40
2019-01-06T13:27:18.599Z,5.30
2019-01-06T13:29:54.890Z,5.30
2019-01-06T13:32:24.964Z,5.40
2019-01-06T13:35:00.921Z,5.50
2019-01-06T13:37:36.740Z,5.50
2019-01-06T13:40:07.860Z,5.50
2019-01-06T13:42:50.116Z,5.50
2019-01-06T13:45:29.384Z,5.50
2019-01-06T13:48:11.323Z,5.50
2019-01-06T13:50:41.482Z,5.40
2019-01-06T13:53:14.566Z,5.40
2019-01-06T13:55:59.552Z,5.30
2019-01-06T13:58:32.493Z,5.30
2019-01-06T14:01:02.598Z,5.30
2019-01-06T14:03:49.390Z,5.30
2019-01-06T14:06:22.648Z,5.30
2019-01-06T14:09:10.558Z,5.30
2019-01-06T14:11:57.025Z,5.30
2019-01-06T14:14:32.577Z,5.40
2019-01-06T14:17:11.460Z,5.20
2019-01-06T14:19:47.284Z,5.10
2019-01-06T14:22:32.401Z,5.10
2019-01-06T14:25:20.704Z,5.00
2019-01-06T14:28:02.826Z,5.00
2019-01-06T14:30:41.844Z,5.00
2019-01-06T14:33:27.104Z,4.80
2019-01-06T14:36:15.344Z,4.80
2019-01-06T14:39:00.594Z,4.90
2019-01-06T14:41:30.686Z,4.90
2019-01-06T14:44:06.683Z,4.90
2019-01-06T14:49:59.674Z,4.90
2019-01-06T14:52:32.539Z,4.90
2019-01-06T14:55:18.891Z,4.90
2019-01-06T14:57:52.073Z,4.90
2019-01-06T15:00:22.252Z,4.80
2019-01-06T15:03:10.337Z,4.90
2019-01-06T15:05:46.425Z,4.80
2019-01-06T15:08:22.332Z,4.80
2019-01-06T15:10:55.576Z,4.90
2019-01-06T15:13:25.862Z,4.90
2019-01-06T15:16:11.506Z,4.80
2019-01-06T15:18:58.109Z,4.80
2019-01-06T15:21:45.021Z,4.80
2019-01-06T15:24:27.560Z,4.80
2019-01-06T15:27:00.492Z,4.70
2019-01-06T15:29:46.660Z,4.80
2019-01-06T15:32:16.744Z,4.80
2019-01-06T15:34:49.684Z,4.70
2019-01-06T15:37:32.173Z,4.70
2019-01-06T15:40:05.269Z,4.70
2019-01-06T15:42:51.791Z,4.70
2019-01-06T15:45:24.646Z,4.60
2019-01-06T15:47:54.735Z,4.60
2019-01-06T15:50:36.461Z,4.60
2019-01-06T15:53:12.017Z,4.70
2019-01-06T15:55:44.840Z,4.70
2019-01-06T15:58:31.212Z,4.70
2019-01-06T16:01:10.346Z,4.60
2019-01-06T16:03:40.439Z,4.60
2019-01-06T16:06:16.202Z,4.60
2019-01-06T16:08:54.776Z,4.60
2019-01-06T16:11:24.155Z,4.60
2019-01-06T16:14:10.747Z,4.60
2019-01-06T16:16:40.848Z,4.60
2019-01-06T16:19:26.853Z,4.50
2019-01-06T16:21:59.887Z,4.60
2019-01-06T16:24:35.977Z,4.60
2019-01-06T16:27:08.988Z,4.60
2019-01-06T16:29:55.519Z,4.60
2019-01-06T16:32:28.598Z,4.60
2019-01-06T16:35:14.993Z,4.50
2019-01-06T16:37:57.380Z,4.50
2019-01-06T16:40:36.239Z,4.50
2019-01-06T16:43:21.429Z,4.50
2019-01-06T16:45:57.458Z,4.50
2019-01-06T16:48:39.296Z,4.50
2019-01-06T16:51:25.898Z,4.40
2019-01-06T16:54:12.273Z,4.40
2019-01-06T16:56:48.184Z,4.40
2019-01-06T16:59:33.450Z,4.40
2019-01-06T17:02:19.768Z,4.50
2019-01-06T17:04:49.853Z,4.50
2019-01-06T17:07:36.623Z,4.40
2019-01-06T17:10:13.805Z,4.40
2019-01-06T17:12:59.196Z,4.40
2019-01-06T17:15:29.275Z,4.40
2019-01-06T17:17:59.462Z,4.40
2019-01-06T17:20:32.654Z,4.40
2019-01-06T17:23:05.257Z,4.40
2019-01-06T17:25:38.347Z,4.40
2019-01-06T17:28:25.106Z,4.30
2019-01-06T17:31:01.207Z,4.30
2019-01-06T17:33:31.576Z,4.30
2019-01-06T17:36:17.874Z,4.30
2019-01-06T17:38:47.978Z,4.30
2019-01-06T17:41:18.138Z,4.30
2019-01-06T17:43:50.969Z,4.30
2019-01-06T17:46:30.072Z,4.30
2019-01-06T17:49:16.698Z,4.30
2019-01-06T17:52:03.247Z,4.30
2019-01-06T17:54:49.581Z,4.30
2019-01-06T17:57:25.654Z,4.30
2019-01-06T17:59:55.788Z,4.30
2019-01-06T18:02:41.124Z,4.30
2019-01-06T18:05:13.948Z,4.30
2019-01-06T18:07:55.742Z,4.30
2019-01-06T18:10:38.195Z,4.30
2019-01-06T18:13:17.354Z,4.30
2019-01-06T18:16:03.695Z,4.30
2019-01-06T18:18:33.802Z,4.20
2019-01-06T18:21:13.177Z,4.20
2019-01-06T18:23:45.981Z,4.20
2019-01-06T18:26:32.609Z,4.20
2019-01-06T18:29:21.035Z,4.20
2019-01-06T18:31:57.020Z,4.20
2019-01-06T18:34:30.120Z,4.20
2019-01-06T18:37:11.948Z,4.20
2019-01-06T18:39:42.031Z,4.10
2019-01-06T18:42:29.940Z,4.20
2019-01-06T18:45:09.041Z,4.10
2019-01-06T18:47:34.599Z,4.10
2019-01-06T18:50:07.704Z,4.10
2019-01-06T18:52:43.844Z,4.20
2019-01-06T18:55:30.513Z,4.20
2019-01-06T18:58:18.710Z,4.20
2019-01-06T19:00:51.882Z,4.10
2019-01-06T19:03:24.976Z,4.10
2019-01-06T19:06:04.181Z,4.10
2019-01-06T19:08:50.941Z,4.10
2019-01-06T19:11:21.028Z,4.10
2019-01-06T19:14:07.546Z,4.00
2019-01-06T19:16:37.633Z,4.00
2019-01-06T19:19:17.085Z,4.00
2019-01-06T19:21:47.335Z,4.00
2019-01-06T19:24:17.525Z,4.00
2019-01-06T19:26:50.447Z,4.00
2019-01-06T19:29:26.812Z,4.00
2019-01-06T19:31:56.943Z,4.10
2019-01-06T19:34:33.145Z,4.00
2019-01-06T19:37:21.313Z,4.00
2019-01-06T19:39:54.272Z,4.00
2019-01-06T19:42:27.440Z,4.00
2019-01-06T19:45:00.261Z,4.00
2019-01-06T19:47:30.392Z,4.00
2019-01-06T19:50:00.509Z,4.00
2019-01-06T19:52:30.597Z,4.00
2019-01-06T19:55:03.308Z,4.00
2019-01-06T19:57:46.918Z,4.00
2019-01-06T20:00:19.772Z,4.00
2019-01-06T20:03:05.823Z,4.00
2019-01-06T20:05:45.047Z,4.00
2019-01-06T20:08:31.309Z,4.00
2019-01-06T20:11:17.912Z,4.00
2019-01-06T20:13:50.997Z,4.00
2019-01-06T20:16:26.612Z,4.00
2019-01-06T20:19:02.699Z,3.90
2019-01-06T20:21:49.017Z,3.90
2019-01-06T20:24:28.393Z,4.00
2019-01-06T20:27:07.653Z,3.90
2019-01-06T20:29:40.739Z,3.90
2019-01-06T20:32:16.672Z,3.90
2019-01-06T20:34:52.292Z,3.90
2019-01-06T20:37:31.272Z,3.90
2019-01-06T20:40:18.008Z,3.90
2019-01-06T20:43:06.409Z,3.90
2019-01-06T20:45:36.502Z,3.90
2019-01-06T20:48:12.608Z,3.90
2019-01-06T20:50:45.432Z,3.90
2019-01-06T20:53:21.959Z,3.90
2019-01-06T20:56:04.140Z,3.90
2019-01-06T20:58:39.789Z,3.90
2019-01-06T21:01:26.341Z,3.90
2019-01-06T21:04:08.305Z,3.90
2019-01-06T21:06:38.404Z,3.90
2019-01-06T21:09:20.432Z,3.80
2019-01-06T21:11:50.525Z,3.80
2019-01-06T21:14:37.049Z,3.80
2019-01-06T21:17:23.201Z,3.80
2019-01-06T21:20:11.454Z,3.90
2019-01-06T21:22:41.542Z,3.80
2019-01-06T21:25:26.684Z,3.80
2019-01-06T21:27:56.776Z,3.90
2019-01-06T21:30:32.585Z,3.90
2019-01-06T21:33:08.804Z,3.80
2019-01-06T21:35:42.024Z,3.80
2019-01-06T21:38:12.119Z,3.80
2019-01-06T21:41:00.527Z,3.80
2019-01-06T21:43:46.785Z,3.80
2019-01-06T21:46:16.898Z,3.80
2019-01-06T21:48:52.880Z,3.70
2019-01-06T21:51:23.059Z,3.70
2019-01-06T21:54:08.168Z,3.70
2019-01-06T21:56:50.325Z,3.70
2019-01-06T21:59:35.475Z,3.70
2019-01-06T22:02:08.164Z,3.80
2019-01-06T22:04:40.880Z,3.70
2019-01-06T22:07:11.101Z,3.80
2019-01-06T22:09:47.267Z,3.80
2019-01-06T22:12:17.559Z,3.80
2019-01-06T22:14:53.733Z,3.80
2019-01-06T22:17:35.719Z,3.80
2019-01-06T22:20:19.564Z,3.70
2019-01-06T22:22:49.780Z,3.70
2019-01-06T22:25:19.873Z,3.70
2019-01-06T22:28:06.024Z,3.70
2019-01-06T22:30:54.389Z,3.70
2019-01-06T22:33:28.219Z,3.70
2019-01-06T22:36:07.304Z,4.50
2019-01-06T22:38:44.002Z,3.60
2019-01-06T22:41:15.053Z,3.70
2019-01-06T22:43:57.099Z,3.70
2019-01-06T22:46:27.203Z,3.60
2019-01-06T22:49:14.017Z,3.60
2019-01-06T22:51:53.451Z,3.60
2019-01-06T22:54:35.844Z,3.60
2019-01-06T22:57:14.890Z,3.60
2019-01-06T22:59:57.380Z,3.60
2019-01-06T23:02:43.979Z,3.50
2019-01-06T23:05:16.972Z,3.60
2019-01-06T23:08:11.228Z,3.50
2019-01-06T23:10:50.106Z,3.60
2019-01-06T23:13:38.270Z,3.50
2019-01-06T23:16:08.412Z,3.50
2019-01-06T23:18:54.813Z,3.50
2019-01-06T23:21:29.899Z,3.60
2019-01-06T23:24:09.189Z,3.60
2019-01-06T23:27:07.534Z,3.60
2019-01-06T23:29:55.015Z,3.50
2019-01-06T23:32:34.698Z,3.50
2019-01-06T23:35:09.699Z,3.60
2019-01-06T23:37:55.311Z,3.50
2019-01-06T23:40:42.070Z,3.50
2019-01-06T23:43:12.234Z,3.50
2019-01-06T23:45:58.323Z,3.50
2019-01-06T23:48:34.116Z,3.50
2019-01-06T23:51:10.136Z,3.50
2019-01-06T23:53:43.032Z,3.50
2019-01-06T23:56:29.303Z,3.50
2019-01-06T23:59:02.503Z,3.50
